createdAt,value
2022-09-28T00:01:15.804Z,14.00
2022-09-28T00:03:42.670Z,14.00
2022-09-28T00:06:12.867Z,14.00
2022-09-28T00:08:40.575Z,14.00
2022-09-28T00:11:11.068Z,13.90
2022-09-28T00:13:37.742Z,13.90
2022-09-28T00:16:10.615Z,13.90
2022-09-28T00:18:37.362Z,13.90
2022-09-28T00:21:17.082Z,13.90
2022-09-28T00:24:03.819Z,13.90
2022-09-28T00:26:32.915Z,13.90
2022-09-28T00:29:01.860Z,13.80
2022-09-28T00:31:31.671Z,13.80
2022-09-28T00:34:00.211Z,13.80
2022-09-28T00:36:32.088Z,13.80
2022-09-28T00:39:02.787Z,13.70
2022-09-28T00:41:29.663Z,13.70
2022-09-28T00:44:21.330Z,13.70
2022-09-28T00:46:50.335Z,13.60
2022-09-28T00:49:19.819Z,13.60
2022-09-28T00:51:47.786Z,13.60
2022-09-28T00:54:16.226Z,13.60
2022-09-28T00:56:47.357Z,13.50
2022-09-28T00:59:15.185Z,13.50
2022-09-28T01:01:41.893Z,13.50
2022-09-28T01:04:08.713Z,13.50
2022-09-28T01:06:37.983Z,13.50
2022-09-28T01:09:08.419Z,13.50
2022-09-28T01:11:38.424Z,13.40
2022-09-28T01:14:09.868Z,13.40
2022-09-28T01:16:45.401Z,13.40
2022-09-28T01:19:51.401Z,13.40
2022-09-28T01:22:24.268Z,13.40
2022-09-28T01:25:27.749Z,13.40
2022-09-28T01:28:14.210Z,13.40
2022-09-28T01:30:58.401Z,13.40
2022-09-28T01:33:29.989Z,13.30
2022-09-28T01:36:10.076Z,13.30
2022-09-28T01:38:46.060Z,13.30
2022-09-28T01:41:13.800Z,13.30
2022-09-28T01:43:43.497Z,13.30
2022-09-28T01:46:15.635Z,13.30
2022-09-28T01:48:56.337Z,13.30
2022-09-28T01:51:30.258Z,13.30
2022-09-28T01:54:01.629Z,13.30
2022-09-28T01:56:34.411Z,13.30
2022-09-28T01:59:13.696Z,13.30
2022-09-28T02:01:51.718Z,13.30
2022-09-28T02:04:23.026Z,13.30
2022-09-28T02:06:56.154Z,13.30
2022-09-28T02:09:33.605Z,13.30
2022-09-28T02:12:07.522Z,13.30
2022-09-28T02:14:37.677Z,13.30
2022-09-28T02:17:04.773Z,13.20
2022-09-28T02:19:33.005Z,13.30
2022-09-28T02:22:26.318Z,13.30
2022-09-28T02:24:58.844Z,13.30
2022-09-28T02:27:42.643Z,13.30
2022-09-28T02:30:10.290Z,13.30
2022-09-28T02:32:42.494Z,13.30
2022-09-28T02:35:12.016Z,13.30
2022-09-28T02:37:48.275Z,13.30
2022-09-28T02:40:20.677Z,13.30
2022-09-28T02:43:10.750Z,13.30
2022-09-28T02:46:02.019Z,13.30
2022-09-28T02:49:10.658Z,13.30
2022-09-28T02:52:06.290Z,13.30
2022-09-28T02:54:46.258Z,13.30
2022-09-28T02:57:37.261Z,13.30
2022-09-28T03:00:12.897Z,13.30
2022-09-28T03:03:00.345Z,13.30
2022-09-28T03:05:55.633Z,13.30
2022-09-28T03:08:27.702Z,13.30
2022-09-28T03:11:13.798Z,13.30
2022-09-28T03:13:41.565Z,13.30
2022-09-28T03:16:14.490Z,13.30
2022-09-28T03:18:44.197Z,13.30
2022-09-28T03:21:15.285Z,13.30
2022-09-28T03:23:42.450Z,13.30
2022-09-28T03:26:12.989Z,13.30
2022-09-28T03:28:40.741Z,13.30
2022-09-28T03:31:11.262Z,13.30
2022-09-28T03:33:38.214Z,13.20
2022-09-28T03:36:05.881Z,13.20
2022-09-28T03:38:32.619Z,13.20
2022-09-28T03:41:00.612Z,13.20
2022-09-28T03:43:33.630Z,13.20
2022-09-28T03:46:02.977Z,13.20
2022-09-28T03:48:37.109Z,13.20
2022-09-28T03:51:06.819Z,13.20
2022-09-28T03:53:33.728Z,13.20
2022-09-28T03:56:13.154Z,13.20
2022-09-28T03:58:41.244Z,13.20
2022-09-28T04:01:17.377Z,13.20
2022-09-28T04:03:46.476Z,13.20
2022-09-28T04:06:13.732Z,13.20
2022-09-28T04:08:40.510Z,13.20
2022-09-28T04:11:20.144Z,13.20
2022-09-28T04:13:50.257Z,13.20
2022-09-28T04:16:18.383Z,13.20
2022-09-28T04:18:54.179Z,13.20
2022-09-28T04:21:39.864Z,13.20
2022-09-28T04:24:12.761Z,13.20
2022-09-28T04:26:39.461Z,13.20
2022-09-28T04:29:18.922Z,13.20
2022-09-28T04:31:56.754Z,13.20
2022-09-28T04:34:36.359Z,13.20
2022-09-28T04:37:04.975Z,13.20
2022-09-28T04:39:31.771Z,13.20
2022-09-28T04:41:58.518Z,13.20
2022-09-28T04:44:27.066Z,13.20
2022-09-28T04:47:04.854Z,13.20
2022-09-28T04:49:32.070Z,13.10
2022-09-28T04:52:08.424Z,13.10
2022-09-28T04:54:35.563Z,13.10
2022-09-28T04:57:03.626Z,13.10
2022-09-28T04:59:30.249Z,13.10
2022-09-28T05:01:56.996Z,13.10
2022-09-28T05:04:49.542Z,13.10
2022-09-28T05:07:38.562Z,13.10
2022-09-28T05:10:06.935Z,13.10
2022-09-28T05:12:34.213Z,13.10
2022-09-28T05:15:00.941Z,13.10
2022-09-28T05:17:27.812Z,13.10
2022-09-28T05:20:20.756Z,13.10
2022-09-28T05:22:47.493Z,13.10
2022-09-28T05:25:14.505Z,13.10
2022-09-28T05:27:56.942Z,13.10
2022-09-28T05:30:46.936Z,13.10
2022-09-28T05:33:32.235Z,13.10
2022-09-28T05:36:13.205Z,13.00
2022-09-28T05:38:41.854Z,13.00
2022-09-28T05:41:08.925Z,13.00
2022-09-28T05:43:36.219Z,13.00
2022-09-28T05:46:05.671Z,13.10
2022-09-28T05:48:34.327Z,13.10
2022-09-28T05:51:01.562Z,13.10
2022-09-28T05:53:28.312Z,13.10
2022-09-28T05:56:00.452Z,13.10
2022-09-28T05:58:28.422Z,13.10
2022-09-28T06:00:58.795Z,13.10
2022-09-28T06:03:25.738Z,13.10
2022-09-28T06:05:53.795Z,13.10
2022-09-28T06:08:20.884Z,13.10
2022-09-28T06:11:00.256Z,13.10
2022-09-28T06:13:27.777Z,13.10
2022-09-28T06:15:54.718Z,13.10
2022-09-28T06:18:21.390Z,13.10
2022-09-28T06:21:08.172Z,13.20
2022-09-28T06:23:39.948Z,13.20
2022-09-28T06:26:07.392Z,13.20
2022-09-28T06:28:34.228Z,13.20
2022-09-28T06:31:01.118Z,13.20
2022-09-28T06:33:30.137Z,13.30
2022-09-28T06:35:59.302Z,13.30
2022-09-28T06:38:26.494Z,13.30
2022-09-28T06:40:53.600Z,13.30
2022-09-28T06:43:20.893Z,13.30
2022-09-28T06:46:09.713Z,13.30
2022-09-28T06:48:55.061Z,13.40
2022-09-28T06:51:50.709Z,13.30
2022-09-28T06:54:47.125Z,13.40
2022-09-28T06:57:29.788Z,13.30
2022-09-28T06:59:56.427Z,13.30
2022-09-28T07:02:23.177Z,13.40
2022-09-28T07:05:13.686Z,13.30
2022-09-28T07:07:55.512Z,13.30
2022-09-28T07:10:45.849Z,13.40
2022-09-28T07:16:15.176Z,13.40
2022-09-28T07:18:42.167Z,13.50
2022-09-28T07:21:13.714Z,13.50
2022-09-28T07:23:52.397Z,13.50
2022-09-28T07:26:24.577Z,13.50
2022-09-28T07:29:17.492Z,13.60
2022-09-28T07:31:57.292Z,13.60
2022-09-28T07:34:48.578Z,13.60
2022-09-28T07:37:26.477Z,13.60
2022-09-28T07:40:12.437Z,13.60
2022-09-28T07:42:39.512Z,13.70
2022-09-28T07:45:07.458Z,13.70
2022-09-28T07:47:35.404Z,13.70
2022-09-28T07:50:31.395Z,13.80
2022-09-28T07:53:26.170Z,13.70
2022-09-28T07:56:13.890Z,13.80
2022-09-28T07:58:47.824Z,13.80
2022-09-28T08:01:49.912Z,13.80
2022-09-28T08:04:17.483Z,13.90
2022-09-28T08:06:48.215Z,13.90
2022-09-28T08:09:15.007Z,13.90
2022-09-28T08:12:00.694Z,13.90
2022-09-28T08:14:43.594Z,14.00
2022-09-28T08:17:23.357Z,14.00
2022-09-28T08:20:12.948Z,14.00
2022-09-28T08:22:39.808Z,14.00
2022-09-28T08:25:07.130Z,14.00
2022-09-28T08:27:33.910Z,14.10
2022-09-28T08:30:01.636Z,14.10
2022-09-28T08:33:00.854Z,14.10
2022-09-28T08:35:42.998Z,14.20
2022-09-28T08:38:26.537Z,14.20
2022-09-28T08:41:11.787Z,14.20
2022-09-28T08:44:14.305Z,14.20
2022-09-28T08:47:50.038Z,14.30
2022-09-28T08:50:32.729Z,14.30
2022-09-28T08:53:38.430Z,14.30
2022-09-28T08:56:24.366Z,14.40
2022-09-28T08:58:57.180Z,14.40
2022-09-28T09:01:30.086Z,14.40
2022-09-28T09:03:58.062Z,14.40
2022-09-28T09:06:59.350Z,14.50
2022-09-28T09:09:39.201Z,14.50
2022-09-28T09:12:18.451Z,14.60
2022-09-28T09:14:52.476Z,14.70
2022-09-28T09:17:37.983Z,14.70
2022-09-28T09:20:25.664Z,14.80
2022-09-28T09:23:16.957Z,14.80
2022-09-28T09:25:54.832Z,15.00
2022-09-28T09:28:43.843Z,15.20
2022-09-28T09:31:28.729Z,15.40
2022-09-28T09:34:31.051Z,15.70
2022-09-28T09:37:50.074Z,16.10
2022-09-28T09:40:38.496Z,16.60
2022-09-28T09:43:42.115Z,17.00
2022-09-28T09:46:57.554Z,17.30
2022-09-28T09:49:47.961Z,17.70
2022-09-28T09:52:26.161Z,17.90
2022-09-28T09:54:56.243Z,18.10
2022-09-28T09:57:39.995Z,18.30
2022-09-28T10:00:17.305Z,18.50
2022-09-28T10:03:02.251Z,18.80
2022-09-28T10:05:42.770Z,19.20
2022-09-28T10:08:09.457Z,19.30
2022-09-28T10:11:16.520Z,19.60
2022-09-28T10:13:49.135Z,19.90
2022-09-28T10:16:37.947Z,20.20
2022-09-28T10:19:13.573Z,20.40
2022-09-28T10:22:02.956Z,20.50
2022-09-28T10:24:34.202Z,20.60
2022-09-28T10:27:08.201Z,20.70
2022-09-28T10:29:44.114Z,20.70
2022-09-28T10:32:26.277Z,20.80
2022-09-28T10:35:18.578Z,20.80
2022-09-28T10:37:52.147Z,20.80
2022-09-28T10:40:46.430Z,20.80
2022-09-28T10:43:36.860Z,20.80
2022-09-28T10:46:21.140Z,20.70
2022-09-28T10:48:53.735Z,20.70
2022-09-28T10:51:51.922Z,20.60
2022-09-28T10:54:26.523Z,20.50
2022-09-28T10:56:54.892Z,20.40
2022-09-28T10:59:54.080Z,20.30
2022-09-28T11:02:36.489Z,20.20
2022-09-28T11:05:22.672Z,20.00
2022-09-28T11:07:52.672Z,19.90
2022-09-28T11:10:27.664Z,19.80
2022-09-28T11:12:59.545Z,19.70
2022-09-28T11:15:31.330Z,19.60
2022-09-28T11:18:31.291Z,19.50
2022-09-28T11:21:14.721Z,19.50
2022-09-28T11:24:06.971Z,19.40
2022-09-28T11:26:43.575Z,19.30
2022-09-28T11:29:22.185Z,19.30
2022-09-28T11:32:05.680Z,19.20
2022-09-28T11:34:59.254Z,19.20
2022-09-28T11:37:45.188Z,19.20
2022-09-28T11:40:28.669Z,19.20
2022-09-28T11:42:58.533Z,19.30
2022-09-28T11:45:41.342Z,19.30
2022-09-28T11:48:29.614Z,19.30
2022-09-28T11:51:31.272Z,19.30
2022-09-28T11:54:18.093Z,19.30
2022-09-28T11:56:48.538Z,19.30
2022-09-28T11:59:28.978Z,19.20
2022-09-28T12:02:00.563Z,19.20
2022-09-28T12:04:52.629Z,19.10
2022-09-28T12:07:41.141Z,19.00
2022-09-28T12:10:21.781Z,19.00
2022-09-28T12:13:16.569Z,18.90
2022-09-28T12:19:13.249Z,18.70
2022-09-28T12:21:56.711Z,18.60
2022-09-28T12:24:45.897Z,18.50
2022-09-28T12:27:27.039Z,18.50
2022-09-28T12:30:15.824Z,18.40
2022-09-28T12:33:03.812Z,18.40
2022-09-28T12:35:59.489Z,18.30
2022-09-28T12:39:17.744Z,18.30
2022-09-28T12:42:07.625Z,18.30
2022-09-28T12:44:58.574Z,18.30
2022-09-28T12:47:53.909Z,18.30
2022-09-28T12:50:53.961Z,18.30
2022-09-28T12:53:29.522Z,18.30
2022-09-28T12:56:21.487Z,18.20
2022-09-28T12:59:01.351Z,18.20
2022-09-28T13:01:55.868Z,18.10
2022-09-28T13:04:39.001Z,18.10
2022-09-28T13:07:13.657Z,18.00
2022-09-28T13:09:50.125Z,18.00
2022-09-28T13:12:25.227Z,17.90
2022-09-28T13:15:27.706Z,17.90
2022-09-28T13:18:08.023Z,17.90
2022-09-28T13:20:54.085Z,17.80
2022-09-28T13:23:27.838Z,17.80
2022-09-28T13:26:07.027Z,17.80
2022-09-28T13:28:35.494Z,17.80
2022-09-28T13:31:04.280Z,17.80
2022-09-28T13:33:36.535Z,17.80
2022-09-28T13:36:27.720Z,17.80
2022-09-28T13:38:56.540Z,17.80
2022-09-28T13:41:29.660Z,17.90
2022-09-28T13:44:08.877Z,17.90
2022-09-28T13:46:57.379Z,17.90
2022-09-28T13:49:30.755Z,17.90
2022-09-28T13:52:13.293Z,17.90
2022-09-28T13:54:45.698Z,17.90
2022-09-28T13:57:29.786Z,17.90
2022-09-28T14:00:23.732Z,18.00
2022-09-28T14:03:01.293Z,18.00
2022-09-28T14:05:53.179Z,18.00
2022-09-28T14:08:38.306Z,18.00
2022-09-28T14:11:34.165Z,18.00
2022-09-28T14:14:07.892Z,18.10
2022-09-28T14:16:36.764Z,18.10
2022-09-28T14:19:24.155Z,18.10
2022-09-28T14:21:58.273Z,18.20
2022-09-28T14:24:30.169Z,18.20
2022-09-28T14:27:24.726Z,18.20
2022-09-28T14:30:06.425Z,18.20
2022-09-28T14:32:36.410Z,18.20
2022-09-28T14:35:18.605Z,18.20
2022-09-28T14:38:07.808Z,18.20
2022-09-28T14:41:09.266Z,18.20
2022-09-28T14:43:45.058Z,18.20
2022-09-28T14:46:11.853Z,18.10
2022-09-28T14:48:48.901Z,18.10
2022-09-28T14:51:27.413Z,18.10
2022-09-28T14:54:00.196Z,18.00
2022-09-28T14:56:32.574Z,18.00
2022-09-28T14:59:00.377Z,18.00
2022-09-28T15:01:27.466Z,18.00
2022-09-28T15:04:04.435Z,18.00
2022-09-28T15:06:48.417Z,18.00
2022-09-28T15:09:32.868Z,18.00
2022-09-28T15:12:03.544Z,18.00
2022-09-28T15:14:33.053Z,18.00
2022-09-28T15:17:02.765Z,18.00
2022-09-28T15:19:44.530Z,18.00
2022-09-28T15:22:16.326Z,18.00
2022-09-28T15:24:53.728Z,18.00
2022-09-28T15:27:20.323Z,18.00
2022-09-28T15:30:01.621Z,18.00
2022-09-28T15:32:31.618Z,17.90
2022-09-28T15:35:14.364Z,17.90
2022-09-28T15:37:41.839Z,17.90
2022-09-28T15:40:15.033Z,17.80
2022-09-28T15:42:42.070Z,17.80
2022-09-28T15:45:30.613Z,17.70
2022-09-28T15:48:19.833Z,17.70
2022-09-28T15:51:03.754Z,17.70
2022-09-28T15:53:31.220Z,17.60
2022-09-28T15:56:09.722Z,17.60
2022-09-28T15:58:37.949Z,17.50
2022-09-28T16:01:36.087Z,17.50
2022-09-28T16:04:40.468Z,17.40
2022-09-28T16:07:13.237Z,17.40
2022-09-28T16:10:25.920Z,17.40
2022-09-28T16:13:00.005Z,17.30
2022-09-28T16:15:28.260Z,17.30
2022-09-28T16:18:20.587Z,17.30
2022-09-28T16:20:50.991Z,17.20
2022-09-28T16:23:31.079Z,17.20
2022-09-28T16:26:06.384Z,17.10
2022-09-28T16:28:34.565Z,17.00
2022-09-28T16:31:28.684Z,17.00
2022-09-28T16:34:11.414Z,17.00
2022-09-28T16:36:47.145Z,16.90
2022-09-28T16:39:16.395Z,16.90
2022-09-28T16:41:48.384Z,16.90
2022-09-28T16:44:36.755Z,16.90
2022-09-28T16:47:03.444Z,16.80
2022-09-28T16:49:32.020Z,16.80
2022-09-28T16:51:59.406Z,16.80
2022-09-28T16:54:44.326Z,16.80
2022-09-28T16:57:14.671Z,16.80
2022-09-28T16:59:41.395Z,16.80
2022-09-28T17:05:07.019Z,16.80
2022-09-28T17:07:34.048Z,16.70
2022-09-28T17:10:00.737Z,16.70
2022-09-28T17:12:28.824Z,16.70
2022-09-28T17:14:55.494Z,16.70
2022-09-28T17:17:22.624Z,16.70
2022-09-28T17:19:49.315Z,16.70
2022-09-28T17:22:16.672Z,16.70
2022-09-28T17:24:45.423Z,16.70
2022-09-28T17:27:18.487Z,16.70
2022-09-28T17:29:45.188Z,16.70
2022-09-28T17:32:18.805Z,16.70
2022-09-28T17:34:55.810Z,16.60
2022-09-28T17:37:28.178Z,16.60
2022-09-28T17:39:54.784Z,16.60
2022-09-28T17:42:21.427Z,16.60
2022-09-28T17:44:48.074Z,16.60
2022-09-28T17:47:14.861Z,16.60
2022-09-28T17:49:42.165Z,16.60
2022-09-28T17:52:09.574Z,16.60
2022-09-28T17:54:36.159Z,16.60
2022-09-28T17:57:02.905Z,16.60
2022-09-28T17:59:29.589Z,16.50
2022-09-28T18:01:59.389Z,16.50
2022-09-28T18:04:50.900Z,16.40
2022-09-28T18:07:15.736Z,16.50
2022-09-28T18:09:42.356Z,16.40
2022-09-28T18:12:09.171Z,16.40
2022-09-28T18:14:36.015Z,16.30
2022-09-28T18:17:02.872Z,16.20
2022-09-28T18:19:32.140Z,16.20
2022-09-28T18:21:59.360Z,16.20
2022-09-28T18:24:25.993Z,16.10
2022-09-28T18:26:52.641Z,16.00
2022-09-28T18:29:19.295Z,16.00
2022-09-28T18:31:48.646Z,15.90
2022-09-28T18:34:17.096Z,15.90
2022-09-28T18:36:44.192Z,15.80
2022-09-28T18:39:11.497Z,15.80
2022-09-28T18:41:38.505Z,15.70
2022-09-28T18:44:06.991Z,15.70
2022-09-28T18:46:36.566Z,15.60
2022-09-28T18:49:04.590Z,15.60
2022-09-28T18:51:32.260Z,15.50
2022-09-28T18:54:01.961Z,15.50
2022-09-28T18:56:28.732Z,15.40
2022-09-28T18:58:56.742Z,15.40
2022-09-28T19:01:31.543Z,15.40
2022-09-28T19:04:00.442Z,15.30
2022-09-28T19:06:27.844Z,15.40
2022-09-28T19:08:55.637Z,15.30
2022-09-28T19:11:25.582Z,15.30
2022-09-28T19:13:54.936Z,15.20
2022-09-28T19:16:25.008Z,15.20
2022-09-28T19:18:58.586Z,15.20
2022-09-28T19:21:27.303Z,15.20
2022-09-28T19:23:55.256Z,15.10
2022-09-28T19:26:25.151Z,15.10
2022-09-28T19:28:52.273Z,15.10
2022-09-28T19:31:19.877Z,15.10
2022-09-28T19:33:48.740Z,15.10
2022-09-28T19:36:24.585Z,15.10
2022-09-28T19:38:54.435Z,15.10
2022-09-28T19:41:44.737Z,15.00
2022-09-28T19:44:29.738Z,15.00
2022-09-28T19:47:09.087Z,15.00
2022-09-28T19:49:41.379Z,15.00
2022-09-28T19:52:15.675Z,15.00
2022-09-28T19:54:57.245Z,14.90
2022-09-28T19:57:25.922Z,14.90
2022-09-28T19:59:54.990Z,14.90
2022-09-28T20:02:24.703Z,14.90
2022-09-28T20:04:51.342Z,14.90
2022-09-28T20:07:18.023Z,14.80
2022-09-28T20:09:44.979Z,14.80
2022-09-28T20:12:11.612Z,14.80
2022-09-28T20:14:40.430Z,14.80
2022-09-28T20:17:07.631Z,14.80
2022-09-28T20:19:34.870Z,14.80
2022-09-28T20:22:02.470Z,14.70
2022-09-28T20:24:29.202Z,14.70
2022-09-28T20:26:55.990Z,14.70
2022-09-28T20:29:24.181Z,14.70
2022-09-28T20:31:51.640Z,14.60
2022-09-28T20:34:18.306Z,14.60
2022-09-28T20:36:45.004Z,14.60
2022-09-28T20:39:12.082Z,14.60
2022-09-28T20:41:38.853Z,14.60
2022-09-28T20:44:06.804Z,14.50
2022-09-28T20:46:35.379Z,14.50
2022-09-28T20:49:02.864Z,14.50
2022-09-28T20:51:29.480Z,14.50
2022-09-28T20:53:58.098Z,14.40
2022-09-28T20:56:27.131Z,14.40
2022-09-28T20:58:54.949Z,14.40
2022-09-28T21:01:24.070Z,14.40
2022-09-28T21:03:53.964Z,14.40
2022-09-28T21:06:22.012Z,14.40
2022-09-28T21:08:49.587Z,14.30
2022-09-28T21:11:18.757Z,14.30
2022-09-28T21:13:45.429Z,14.30
2022-09-28T21:16:14.315Z,14.30
2022-09-28T21:18:41.492Z,14.30
2022-09-28T21:21:11.364Z,14.30
2022-09-28T21:23:38.785Z,14.20
2022-09-28T21:26:26.779Z,14.20
2022-09-28T21:28:59.189Z,14.20
2022-09-28T21:31:29.353Z,14.20
2022-09-28T21:33:57.293Z,14.20
2022-09-28T21:36:24.974Z,14.20
2022-09-28T21:38:51.654Z,14.20
2022-09-28T21:41:18.263Z,14.20
2022-09-28T21:43:45.811Z,14.20
2022-09-28T21:46:12.757Z,14.20
2022-09-28T21:48:39.535Z,14.20
2022-09-28T21:51:08.994Z,14.20
2022-09-28T21:53:37.091Z,14.20
2022-09-28T21:56:06.353Z,14.20
2022-09-28T21:58:35.274Z,14.20
2022-09-28T22:01:10.831Z,14.10
2022-09-28T22:03:37.484Z,14.10
2022-09-28T22:06:05.368Z,14.20
2022-09-28T22:08:32.700Z,14.10
2022-09-28T22:11:03.444Z,14.10
2022-09-28T22:13:32.128Z,14.10
2022-09-28T22:15:59.101Z,14.10
2022-09-28T22:18:30.928Z,14.20
2022-09-28T22:21:06.550Z,14.10
2022-09-28T22:23:34.506Z,14.20
2022-09-28T22:26:03.782Z,14.10
2022-09-28T22:28:30.407Z,14.10
2022-09-28T22:30:57.645Z,14.10
2022-09-28T22:33:25.079Z,14.10
2022-09-28T22:35:52.051Z,14.10
2022-09-28T22:38:20.072Z,14.10
2022-09-28T22:40:54.926Z,14.10
2022-09-28T22:43:23.362Z,14.10
2022-09-28T22:45:50.335Z,14.10
2022-09-28T22:48:17.014Z,14.10
2022-09-28T22:50:50.915Z,14.10
2022-09-28T22:53:18.827Z,14.10
2022-09-28T22:55:45.555Z,14.10
2022-09-28T22:58:12.256Z,14.10
2022-09-28T23:00:39.086Z,14.10
2022-09-28T23:03:05.866Z,14.10
2022-09-28T23:05:33.040Z,14.10
2022-09-28T23:07:59.816Z,14.10
2022-09-28T23:10:26.442Z,14.10
2022-09-28T23:12:56.389Z,14.10
2022-09-28T23:15:23.242Z,14.00
2022-09-28T23:17:53.877Z,14.00
2022-09-28T23:20:21.649Z,14.00
2022-09-28T23:22:49.425Z,14.00
2022-09-28T23:25:18.536Z,14.00
2022-09-28T23:27:49.473Z,13.90
2022-09-28T23:30:17.751Z,13.90
2022-09-28T23:32:44.813Z,13.90
2022-09-28T23:35:12.793Z,13.90
2022-09-28T23:37:39.787Z,13.90
2022-09-28T23:40:07.239Z,13.80
2022-09-28T23:42:35.376Z,13.80
2022-09-28T23:45:01.988Z,13.80
2022-09-28T23:47:28.619Z,13.80
2022-09-28T23:49:55.252Z,13.70
2022-09-28T23:52:21.854Z,13.70
2022-09-28T23:54:48.499Z,13.70
2022-09-28T23:57:15.111Z,13.70
2022-09-28T23:59:41.698Z,13.70
